Terminal Aerodrome Forecast
Issued by NWS

Home | Current Version | Previous Version | Text Only | Print | Product List | Glossary On
Versions: 1 2 3 4 5 6 7 8 9 10 11 12 13 14 15 16 17 18 19 20 21 22 23 24 25
000
FTUS45 KTWC 261100
TAFOLS
TAF
KOLS 261125Z 2612/2712 VRB03KT P6SM SCT080 OVC180
     FM261500 10005KT P6SM BKN080 OVC120
      TEMPO 2615/2618 -SHRA
     FM261800 12008KT P6SM -SHRA BKN035 OVC050
     FM270300 08004KT P6SM VCSH BKN035 OVC050
     FM270600 VRB04KT P6SM FEW010 BKN040=

USA.gov is the U.S. government's official web portal to all federal, state and local government web resources and services.